Time;durP1;ratioP1;P1;durP2;ratioP2;P2;SDS_P1;SDS_P2;PMS_P1;PMS_P2;Temp;Humidity;BMP_temperature;BMP_pressure;BME280_temperature;BME280_humidity;BME280_pressure;Samples;Min_cycle;Max_cycle;Signal;HPM_P1;HPM_P2
2021/06/02 00:00:34;;;;;;;8.98;5.55;;;17.20;18.20;;;;;;5012526;28;20416;-74
2021/06/02 00:03:03;;;;;;;5.90;5.30;;;17.40;18.40;;;;;;5011703;28;20396;-74
2021/06/02 00:05:30;;;;;;;13.80;6.35;;;17.30;18.60;;;;;;5006184;28;20406;-77
2021/06/02 00:07:57;;;;;;;12.18;6.00;;;17.40;19.20;;;;;;4974851;28;20398;-75
2021/06/02 00:10:24;;;;;;;9.40;5.68;;;17.30;19.20;;;;;;5012560;28;20399;-75
2021/06/02 00:12:51;;;;;;;9.30;6.38;;;17.10;20.20;;;;;;5002593;28;20541;-77
2021/06/02 00:15:17;;;;;;;10.50;6.05;;;17.10;20.80;;;;;;4975638;28;20760;-75
2021/06/02 00:17:43;;;;;;;11.63;6.15;;;16.90;22.00;;;;;;4988461;28;20400;-75
2021/06/02 00:20:10;;;;;;;8.25;5.10;;;16.70;21.40;;;;;;5011604;28;20480;-76
2021/06/02 00:22:36;;;;;;;9.00;5.80;;;16.50;20.00;;;;;;5008270;28;20756;-75
2021/06/02 00:25:02;;;;;;;12.97;5.80;;;16.50;22.30;;;;;;4992575;28;20406;-75
2021/06/02 00:27:29;;;;;;;9.18;5.70;;;16.50;21.90;;;;;;4992392;28;20792;-75
2021/06/02 00:29:55;;;;;;;12.05;5.53;;;16.30;21.20;;;;;;4992366;28;20669;-75
2021/06/02 00:32:21;;;;;;;7.30;5.80;;;16.10;21.20;;;;;;4992442;28;20898;-76
2021/06/02 00:34:48;;;;;;;8.23;5.72;;;16.00;23.00;;;;;;4974211;28;20399;-76
2021/06/02 00:37:14;;;;;;;8.23;5.88;;;16.20;23.60;;;;;;4991605;28;20398;-76
2021/06/02 00:39:44;;;;;;;8.68;5.90;;;16.30;22.70;;;;;;4991692;28;20494;-76
2021/06/02 00:42:10;;;;;;;13.33;6.40;;;16.30;23.10;;;;;;4991752;28;21007;-76
2021/06/02 00:44:36;;;;;;;13.50;7.03;;;16.20;24.20;;;;;;4991166;28;20481;-74
2021/06/02 00:47:04;;;;;;;9.52;6.10;;;16.30;24.20;;;;;;4991715;28;20400;-75
2021/06/02 00:49:30;;;;;;;10.50;6.70;;;16.20;24.40;;;;;;4991768;28;20391;-75
2021/06/02 00:52:05;;;;;;;12.25;6.38;;;16.30;24.30;;;;;;4974427;28;20391;-74
2021/06/02 00:54:34;;;;;;;7.95;5.65;;;16.40;23.90;;;;;;4991939;28;20387;-75
2021/06/02 00:57:02;;;;;;;8.90;5.72;;;16.40;23.50;;;;;;4991464;28;20394;-75
2021/06/02 00:59:39;;;;;;;7.90;5.95;;;16.30;23.50;;;;;;4991434;28;20848;-75
2021/06/02 01:02:19;;;;;;;14.40;6.35;;;16.20;23.60;;;;;;4991579;28;20391;-75
2021/06/02 01:04:46;;;;;;;17.05;6.40;;;16.30;23.70;;;;;;4991107;28;20391;-75
2021/06/02 01:07:13;;;;;;;8.63;5.90;;;16.10;23.80;;;;;;4991340;28;20394;-75
2021/06/02 01:09:51;;;;;;;12.03;5.77;;;16.00;24.10;;;;;;4973526;28;20399;-75
2021/06/02 01:12:21;;;;;;;6.27;5.50;;;15.80;24.20;;;;;;4994777;28;20471;-75
2021/06/02 01:14:48;;;;;;;7.82;5.68;;;15.70;24.90;;;;;;5010414;28;20396;-75
2021/06/02 01:17:20;;;;;;;7.90;6.10;;;15.80;25.50;;;;;;4993294;28;20389;-76
2021/06/02 01:19:46;;;;;;;9.40;5.88;;;15.90;24.90;;;;;;5010761;28;20444;-75
2021/06/02 01:22:13;;;;;;;8.20;5.80;;;15.90;24.00;;;;;;5010287;28;20472;-76
2021/06/02 01:24:40;;;;;;;13.25;5.80;;;15.80;23.80;;;;;;4990808;28;20862;-75
2021/06/02 01:27:08;;;;;;;8.07;5.97;;;15.60;23.30;;;;;;4991354;28;20437;-75
2021/06/02 01:29:37;;;;;;;8.07;5.82;;;15.40;23.90;;;;;;4991038;28;20823;-73
2021/06/02 01:32:41;;;;;;;8.25;5.47;;;15.40;24.70;;;;;;4994975;28;20395;-74
2021/06/02 01:35:37;;;;;;;7.55;5.78;;;15.40;25.20;;;;;;4897128;29;20398;-75
2021/06/02 01:38:31;;;;;;;7.95;5.07;;;15.20;26.30;;;;;;4897091;29;20435;-75
2021/06/02 01:41:24;;;;;;;7.22;5.30;;;15.00;26.10;;;;;;4981742;28;20404;-74
2021/06/02 01:44:27;;;;;;;6.00;5.20;;;15.00;25.40;;;;;;4994899;28;20859;-74
2021/06/02 01:47:23;;;;;;;15.43;6.15;;;14.90;25.30;;;;;;4976825;28;20501;-75
2021/06/02 01:50:18;;;;;;;11.70;5.00;;;14.90;25.80;;;;;;4977362;28;20453;-74
2021/06/02 01:52:53;;;;;;;7.05;5.10;;;14.80;26.40;;;;;;4994551;28;20414;-74
2021/06/02 01:55:33;;;;;;;6.85;4.90;;;15.00;26.80;;;;;;4995197;28;20462;-74
2021/06/02 01:58:23;;;;;;;6.20;4.82;;;14.80;27.50;;;;;;4994948;28;20429;-74
2021/06/02 02:01:10;;;;;;;7.60;4.70;;;14.70;28.60;;;;;;4994384;28;20467;-76
2021/06/02 02:03:42;;;;;;;5.70;5.03;;;14.50;28.60;;;;;;4997048;28;20414;-77
2021/06/02 02:06:28;;;;;;;7.95;5.30;;;14.40;29.00;;;;;;5015150;28;21012;-75
2021/06/02 02:09:05;;;;;;;7.00;5.28;;;14.40;29.40;;;;;;5014309;28;20407;-75
2021/06/02 02:11:31;;;;;;;11.00;5.40;;;14.30;29.80;;;;;;5013972;28;20419;-75
2021/06/02 02:14:34;;;;;;;5.60;5.00;;;14.30;29.80;;;;;;4978911;28;20394;-75
2021/06/02 02:17:28;;;;;;;11.27;5.00;;;14.30;30.20;;;;;;4995207;28;20390;-76
2021/06/02 02:20:16;;;;;;;9.90;5.60;;;14.30;30.60;;;;;;4979032;28;20451;-75
2021/06/02 02:23:10;;;;;;;5.75;5.15;;;14.30;30.40;;;;;;4994186;28;20901;-75
2021/06/02 02:25:57;;;;;;;7.68;5.20;;;14.30;30.40;;;;;;4993778;28;20493;-76
2021/06/02 02:28:49;;;;;;;7.32;4.90;;;14.30;30.40;;;;;;4976175;28;20387;-75
2021/06/02 02:31:40;;;;;;;9.30;5.07;;;14.30;30.20;;;;;;4993627;28;20798;-75
2021/06/02 02:34:44;;;;;;;9.10;5.28;;;14.40;29.60;;;;;;4975771;28;20875;-74
2021/06/02 02:37:49;;;;;;;6.82;5.00;;;14.30;29.70;;;;;;4992972;28;20395;-76
2021/06/02 02:40:30;;;;;;;7.93;5.68;;;14.50;29.20;;;;;;4993423;28;20943;-75
2021/06/02 02:43:10;;;;;;;7.25;5.32;;;14.50;29.10;;;;;;4992194;28;20409;-74
2021/06/02 02:45:59;;;;;;;8.35;5.25;;;14.40;30.20;;;;;;4993280;28;20461;-74
2021/06/02 02:48:54;;;;;;;10.70;5.90;;;14.40;30.30;;;;;;4975939;28;20941;-74
2021/06/02 02:51:37;;;;;;;6.50;5.20;;;14.50;30.30;;;;;;4994331;28;20414;-74
2021/06/02 02:54:10;;;;;;;10.15;5.80;;;14.60;30.00;;;;;;5012544;28;20488;-73
2021/06/02 02:56:48;;;;;;;6.50;5.90;;;14.60;30.50;;;;;;5013325;28;20388;-76
2021/06/02 02:59:27;;;;;;;11.43;6.40;;;14.50;30.40;;;;;;5012961;28;20393;-74
2021/06/02 03:01:59;;;;;;;10.40;6.10;;;14.60;30.60;;;;;;5012384;28;20778;-74
2021/06/02 03:04:27;;;;;;;9.00;5.80;;;14.60;30.90;;;;;;5003470;28;20456;-73
2021/06/02 03:07:02;;;;;;;9.17;5.80;;;14.60;31.20;;;;;;4992792;28;20900;-74
2021/06/02 03:09:44;;;;;;;8.53;5.70;;;14.50;31.10;;;;;;4992880;28;20398;-74
2021/06/02 03:12:29;;;;;;;10.55;5.70;;;14.40;32.00;;;;;;4995331;28;20787;-74
2021/06/02 03:15:05;;;;;;;8.07;5.68;;;14.30;33.20;;;;;;5012134;28;20420;-74
2021/06/02 03:17:38;;;;;;;7.53;4.90;;;14.20;33.70;;;;;;5012115;28;20392;-74
2021/06/02 03:20:26;;;;;;;5.93;5.07;;;14.20;33.80;;;;;;5011930;28;21022;-73
2021/06/02 03:23:15;;;;;;;7.80;5.28;;;14.10;33.70;;;;;;4988186;28;20406;-74
2021/06/02 03:26:04;;;;;;;5.22;4.72;;;14.00;33.50;;;;;;4992324;28;20481;-73
2021/06/02 03:28:32;;;;;;;8.43;5.35;;;13.90;33.80;;;;;;4992344;28;20383;-73
2021/06/02 03:31:07;;;;;;;10.10;5.40;;;13.90;34.00;;;;;;4992316;28;20394;-73
2021/06/02 03:33:38;;;;;;;11.33;5.10;;;13.90;34.00;;;;;;4992405;28;20386;-74
2021/06/02 03:36:30;;;;;;;12.27;6.70;;;13.90;34.20;;;;;;4992668;28;20481;-73
2021/06/02 03:39:18;;;;;;;11.70;6.72;;;14.50;33.60;;;;;;4992366;28;20386;-73
2021/06/02 03:42:08;;;;;;;10.90;6.25;;;14.90;32.00;;;;;;4974988;28;20779;-73
2021/06/02 03:44:53;;;;;;;11.38;5.30;;;15.00;30.70;;;;;;4992762;28;20760;-73
2021/06/02 03:47:53;;;;;;;13.13;5.43;;;15.00;29.40;;;;;;4992201;28;20771;-74
2021/06/02 03:50:25;;;;;;;9.70;5.70;;;15.00;29.20;;;;;;4992037;28;20399;-74
2021/06/02 03:53:13;;;;;;;9.00;5.00;;;15.00;29.10;;;;;;4991763;28;20417;-74
2021/06/02 03:55:56;;;;;;;8.20;5.40;;;14.90;28.80;;;;;;4992108;28;20397;-75
2021/06/02 03:58:31;;;;;;;7.63;5.70;;;14.80;29.10;;;;;;4992379;28;20386;-76
2021/06/02 04:01:32;;;;;;;8.18;5.00;;;14.50;30.40;;;;;;4992739;28;20441;-75
2021/06/02 04:04:04;;;;;;;7.53;5.10;;;14.40;30.80;;;;;;4992539;28;20409;-74
2021/06/02 04:06:37;;;;;;;9.90;5.20;;;14.30;31.70;;;;;;4993073;28;20437;-74
2021/06/02 04:09:12;;;;;;;10.88;5.70;;;14.30;32.20;;;;;;4991887;28;20474;-75
2021/06/02 04:12:04;;;;;;;12.63;5.50;;;14.40;33.20;;;;;;4991755;28;20418;-74
2021/06/02 04:14:35;;;;;;;8.23;5.60;;;14.40;33.40;;;;;;4991502;28;20989;-75
2021/06/02 04:17:01;;;;;;;10.25;5.80;;;14.50;33.00;;;;;;4991190;28;20387;-74
2021/06/02 04:19:32;;;;;;;9.43;5.70;;;14.50;33.10;;;;;;4991482;28;20477;-75
2021/06/02 04:22:05;;;;;;;11.13;6.03;;;14.50;33.50;;;;;;4974086;28;20399;-75
2021/06/02 04:24:32;;;;;;;9.63;5.90;;;14.50;33.60;;;;;;5010518;28;20399;-75
2021/06/02 04:26:59;;;;;;;8.93;5.60;;;14.50;33.90;;;;;;5010786;28;20603;-74
2021/06/02 04:29:26;;;;;;;9.23;5.00;;;14.50;33.50;;;;;;5013235;28;20510;-73
2021/06/02 04:31:55;;;;;;;8.63;5.60;;;14.60;32.70;;;;;;5015333;28;20438;-74
2021/06/02 04:34:22;;;;;;;7.32;5.20;;;14.70;32.90;;;;;;5013272;28;20397;-74
2021/06/02 04:36:51;;;;;;;8.30;5.53;;;14.70;32.80;;;;;;5011332;28;20420;-73
2021/06/02 04:39:18;;;;;;;7.85;5.25;;;14.70;32.70;;;;;;4993337;28;20431;-74
2021/06/02 04:41:46;;;;;;;11.27;6.20;;;14.80;32.80;;;;;;5011397;28;20399;-74
2021/06/02 04:44:14;;;;;;;9.77;5.10;;;14.90;32.80;;;;;;4993359;28;20889;-74
2021/06/02 04:46:40;;;;;;;8.70;5.53;;;15.00;32.40;;;;;;5010439;28;20409;-75
2021/06/02 04:49:06;;;;;;;10.38;5.85;;;15.10;32.30;;;;;;5011341;28;20381;-74
2021/06/02 04:52:02;;;;;;;82.60;54.73;;;15.10;32.90;;;;;;5010665;28;20762;-73
2021/06/02 04:54:46;;;;;;;9.47;7.17;;;15.20;32.70;;;;;;4990918;28;20417;-74
2021/06/02 04:57:36;;;;;;;21.00;8.60;;;15.30;30.60;;;;;;4991620;28;20421;-75
2021/06/02 05:00:17;;;;;;;15.70;10.43;;;15.50;29.60;;;;;;4990612;28;20740;-74
2021/06/02 05:03:16;;;;;;;25.98;18.98;;;15.70;29.20;;;;;;4990634;28;20374;-73
2021/06/02 05:06:18;;;;;;;7.82;5.85;;;15.80;29.10;;;;;;4991813;28;20413;-74
2021/06/02 05:09:09;;;;;;;14.43;9.85;;;15.90;28.00;;;;;;4994623;28;20791;-76
2021/06/02 05:11:53;;;;;;;23.07;15.77;;;16.10;28.50;;;;;;4994984;28;20419;-76
2021/06/02 05:14:52;;;;;;;23.27;17.05;;;16.30;28.30;;;;;;4994435;28;20852;-74
2021/06/02 05:17:32;;;;;;;12.55;8.27;;;16.40;27.90;;;;;;4994950;28;20422;-75
2021/06/02 05:20:22;;;;;;;10.75;5.63;;;16.60;26.50;;;;;;4994573;28;20425;-74
2021/06/02 05:23:21;;;;;;;15.80;7.78;;;16.70;25.30;;;;;;5000152;28;20376;-75
2021/06/02 05:26:25;;;;;;;9.40;5.50;;;16.80;25.10;;;;;;5013661;28;20415;-75
2021/06/02 05:29:23;;;;;;;14.70;6.10;;;16.90;23.40;;;;;;5013918;28;20396;-75
2021/06/02 05:32:39;;;;;;;10.07;5.80;;;17.00;22.90;;;;;;4996653;28;20649;-75
2021/06/02 05:35:19;;;;;;;20.33;7.38;;;17.10;23.30;;;;;;5013865;28;20400;-74
2021/06/02 05:38:35;;;;;;;19.40;6.05;;;17.30;23.80;;;;;;5014009;28;20392;-75
2021/06/02 05:41:56;;;;;;;8.40;5.22;;;17.50;22.70;;;;;;4934927;29;21004;-76
2021/06/02 05:44:59;;;;;;;12.77;5.80;;;17.40;21.30;;;;;;4933788;29;20794;-75
2021/06/02 05:47:44;;;;;;;13.57;6.45;;;17.50;21.30;;;;;;4933473;29;20403;-74
2021/06/02 05:50:34;;;;;;;16.60;5.90;;;17.60;21.10;;;;;;4971786;28;20413;-74
2021/06/02 05:53:09;;;;;;;13.82;6.47;;;17.70;20.70;;;;;;5004791;28;20386;-74
2021/06/02 05:56:03;;;;;;;11.63;5.27;;;17.80;19.90;;;;;;4994221;28;20442;-74
2021/06/02 05:59:00;;;;;;;8.55;4.80;;;17.90;19.80;;;;;;4994374;28;20458;-75
2021/06/02 06:01:53;;;;;;;9.25;5.10;;;18.00;19.10;;;;;;4978137;28;20393;-76
2021/06/02 06:04:31;;;;;;;9.68;4.90;;;18.10;19.60;;;;;;4995737;28;20410;-76
2021/06/02 06:07:24;;;;;;;6.53;4.55;;;18.20;18.90;;;;;;4994747;28;20416;-75
2021/06/02 06:10:08;;;;;;;13.52;5.68;;;18.40;18.60;;;;;;4993922;28;20386;-74
2021/06/02 06:12:56;;;;;;;11.48;5.28;;;18.60;18.40;;;;;;4999729;28;20389;-74
2021/06/02 06:15:58;;;;;;;9.13;5.32;;;18.70;18.50;;;;;;4968360;28;20393;-74
2021/06/02 06:18:45;;;;;;;11.20;5.10;;;18.90;18.50;;;;;;5011746;28;20699;-74
2021/06/02 06:21:29;;;;;;;15.50;7.63;;;19.00;18.00;;;;;;5012696;28;20384;-75
2021/06/02 06:23:56;;;;;;;7.13;5.50;;;19.20;17.50;;;;;;4998438;28;20391;-73
2021/06/02 06:26:33;;;;;;;4.95;4.20;;;19.40;17.30;;;;;;4976221;28;20410;-74
2021/06/02 06:29:31;;;;;;;10.07;5.10;;;19.40;17.20;;;;;;4994001;28;20469;-76
2021/06/02 06:32:00;;;;;;;12.98;5.50;;;19.50;17.30;;;;;;4988273;28;20413;-75
2021/06/02 06:34:30;;;;;;;10.40;5.20;;;19.70;17.00;;;;;;4993184;28;20751;-74
2021/06/02 06:36:58;;;;;;;12.98;5.90;;;19.80;16.80;;;;;;4993805;28;20391;-75
2021/06/02 06:39:29;;;;;;;8.93;5.20;;;20.00;16.90;;;;;;4993300;28;20402;-75
2021/06/02 06:41:55;;;;;;;5.13;4.38;;;20.10;16.40;;;;;;4993514;28;20402;-75
2021/06/02 06:44:22;;;;;;;7.70;4.80;;;20.30;16.20;;;;;;4993135;28;20473;-75
2021/06/02 06:46:53;;;;;;;8.80;4.75;;;20.30;16.50;;;;;;4992716;28;20421;-75
2021/06/02 06:49:19;;;;;;;7.47;6.15;;;20.30;15.90;;;;;;4993211;28;20474;-75
2021/06/02 06:51:52;;;;;;;15.85;11.68;;;20.30;15.80;;;;;;4993696;28;20394;-75
2021/06/02 06:54:19;;;;;;;19.30;6.30;;;20.40;16.20;;;;;;4975375;28;20391;-74
2021/06/02 06:56:47;;;;;;;17.38;5.55;;;20.50;15.50;;;;;;4992763;28;20394;-75
2021/06/02 06:59:17;;;;;;;11.05;5.40;;;20.60;15.00;;;;;;4975708;28;20403;-75
2021/06/02 07:01:43;;;;;;;8.23;5.05;;;20.60;15.00;;;;;;4975674;28;20398;-75
2021/06/02 07:04:10;;;;;;;8.10;5.53;;;20.70;14.70;;;;;;4992729;28;20394;-75
2021/06/02 07:06:37;;;;;;;9.90;5.20;;;20.80;14.70;;;;;;4993605;28;20425;-75
2021/06/02 07:09:04;;;;;;;24.25;16.40;;;20.80;14.40;;;;;;4975572;28;20745;-75
2021/06/02 07:11:37;;;;;;;12.65;7.70;;;20.90;14.70;;;;;;4993262;28;20406;-74
2021/06/02 07:14:04;;;;;;;17.10;6.50;;;21.10;14.50;;;;;;5010646;28;20392;-74
2021/06/02 07:16:31;;;;;;;11.30;5.75;;;21.10;14.50;;;;;;5012721;28;20400;-74
2021/06/02 07:18:59;;;;;;;7.47;4.78;;;21.10;13.70;;;;;;5012590;28;20393;-74
2021/06/02 07:21:25;;;;;;;11.20;5.40;;;21.20;13.90;;;;;;5011888;28;20405;-75
2021/06/02 07:23:51;;;;;;;10.85;5.55;;;21.30;13.90;;;;;;5006067;28;20404;-75
2021/06/02 07:26:18;;;;;;;8.80;5.70;;;21.30;13.70;;;;;;5006520;28;20959;-74
2021/06/02 07:28:43;;;;;;;8.15;5.40;;;21.50;13.40;;;;;;5010754;28;20506;-75
2021/06/02 07:31:10;;;;;;;10.75;5.50;;;21.50;13.40;;;;;;5011555;28;20401;-75
2021/06/02 07:33:36;;;;;;;7.05;5.13;;;21.50;13.90;;;;;;5011623;28;20396;-75
2021/06/02 07:36:05;;;;;;;8.35;5.45;;;21.60;13.00;;;;;;4994486;28;20432;-73
2021/06/02 07:38:30;;;;;;;8.95;4.88;;;21.60;12.50;;;;;;5011246;28;20411;-75
2021/06/02 07:40:56;;;;;;;10.07;4.60;;;21.70;12.30;;;;;;5011885;28;20479;-73
2021/06/02 07:43:22;;;;;;;20.27;6.28;;;21.80;11.90;;;;;;5011826;28;20400;-73
2021/06/02 07:45:48;;;;;;;10.90;5.67;;;21.70;12.20;;;;;;5003878;28;20818;-73
2021/06/02 07:48:13;;;;;;;8.13;5.03;;;21.70;12.60;;;;;;5010705;28;20905;-74
2021/06/02 07:50:40;;;;;;;9.93;4.70;;;21.80;12.80;;;;;;5024223;23;20602;-73
2021/06/02 07:53:06;;;;;;;10.05;4.80;;;22.00;12.40;;;;;;5001357;28;20477;-72
2021/06/02 07:55:32;;;;;;;8.23;5.25;;;22.10;12.00;;;;;;4994063;28;20486;-72
2021/06/02 07:57:58;;;;;;;10.43;5.10;;;22.10;12.00;;;;;;5011895;28;20928;-72
2021/06/02 08:00:24;;;;;;;10.73;4.68;;;22.20;12.00;;;;;;5018559;28;20387;-72
2021/06/02 08:02:49;;;;;;;9.27;5.30;;;22.20;12.40;;;;;;5030698;28;20421;-73
2021/06/02 08:05:16;;;;;;;10.27;5.18;;;22.20;12.40;;;;;;5028029;28;20936;-73
2021/06/02 08:07:43;;;;;;;5.82;4.80;;;22.40;11.80;;;;;;5028474;28;20899;-70
2021/06/02 08:10:11;;;;;;;8.47;5.30;;;22.70;12.20;;;;;;5030864;28;20402;-71
2021/06/02 08:12:37;;;;;;;11.07;4.70;;;22.70;11.20;;;;;;5031230;28;20418;-70
2021/06/02 08:15:04;;;;;;;12.10;4.68;;;22.80;10.40;;;;;;5021728;28;20431;-69
2021/06/02 08:17:30;;;;;;;6.60;4.88;;;22.80;11.50;;;;;;5015553;28;20385;-69
2021/06/02 08:19:56;;;;;;;6.23;4.73;;;22.90;11.40;;;;;;5025426;28;20538;-69
2021/06/02 08:22:21;;;;;;;7.73;4.50;;;23.10;10.50;;;;;;5019287;28;20379;-71
2021/06/02 08:24:47;;;;;;;8.05;5.32;;;23.20;9.90;;;;;;5010631;28;20389;-72
2021/06/02 08:27:13;;;;;;;9.73;5.43;;;23.30;10.40;;;;;;5028201;28;20380;-72
2021/06/02 08:29:39;;;;;;;6.18;4.57;;;23.30;10.20;;;;;;5031060;28;20387;-72
2021/06/02 08:32:05;;;;;;;8.17;4.50;;;23.30;10.30;;;;;;5031423;28;20847;-72
2021/06/02 08:34:31;;;;;;;6.37;4.23;;;23.40;9.30;;;;;;5031214;28;20418;-72
2021/06/02 08:36:56;;;;;;;6.60;4.53;;;23.40;9.60;;;;;;5031195;28;20486;-71
2021/06/02 08:39:22;;;;;;;11.90;4.63;;;23.40;9.40;;;;;;5030950;28;20402;-71
2021/06/02 08:41:50;;;;;;;6.50;4.50;;;23.50;9.70;;;;;;5028757;28;20391;-72
2021/06/02 08:44:16;;;;;;;7.20;4.30;;;23.70;10.30;;;;;;5018413;28;20534;-73
2021/06/02 08:46:42;;;;;;;5.80;4.93;;;23.80;9.90;;;;;;5012337;28;20833;-73
2021/06/02 08:49:08;;;;;;;6.97;4.80;;;23.80;9.60;;;;;;5011708;28;20396;-72
2021/06/02 08:51:34;;;;;;;4.85;4.10;;;24.00;9.40;;;;;;5031452;28;20395;-70
2021/06/02 08:54:00;;;;;;;8.18;4.65;;;24.00;8.60;;;;;;5013804;28;20384;-72
2021/06/02 08:56:28;;;;;;;6.43;4.80;;;24.10;8.90;;;;;;5027158;28;20895;-72
2021/06/02 08:58:54;;;;;;;11.63;5.07;;;24.10;9.00;;;;;;5028964;28;20876;-70
2021/06/02 09:01:19;;;;;;;5.35;4.40;;;24.20;8.00;;;;;;5028762;28;20417;-73
2021/06/02 09:03:45;;;;;;;9.13;4.87;;;24.30;8.40;;;;;;5030108;28;20800;-72
2021/06/02 09:06:11;;;;;;;6.53;4.70;;;24.30;8.00;;;;;;5030012;28;20426;-73
2021/06/02 09:08:39;;;;;;;9.50;4.97;;;24.40;8.20;;;;;;5029548;28;20876;-72
2021/06/02 09:11:42;;;;;;;5.55;4.60;;;24.50;7.70;;;;;;5025431;28;20470;-71
2021/06/02 09:14:40;;;;;;;6.90;4.43;;;24.60;6.90;;;;;;5024676;28;20760;-73
2021/06/02 09:17:11;;;;;;;9.97;4.57;;;24.70;6.90;;;;;;4982025;28;20401;-71
2021/06/02 09:19:41;;;;;;;6.10;4.43;;;24.80;6.50;;;;;;5011725;28;20389;-72
2021/06/02 09:22:10;;;;;;;5.03;4.10;;;24.80;5.70;;;;;;5025193;28;20885;-71
2021/06/02 09:24:59;;;;;;;7.13;3.75;;;24.80;5.30;;;;;;5009799;28;20888;-72
2021/06/02 09:27:45;;;;;;;7.90;3.92;;;25.00;5.20;;;;;;5010040;28;20446;-71
2021/06/02 09:30:27;;;;;;;8.97;4.93;;;25.00;5.30;;;;;;5009209;28;20475;-71
2021/06/02 09:32:58;;;;;;;4.75;3.92;;;25.10;6.40;;;;;;5010417;28;20380;-71
2021/06/02 09:35:36;;;;;;;5.60;3.70;;;25.10;6.10;;;;;;5010629;28;20908;-73
2021/06/02 09:38:02;;;;;;;5.22;3.40;;;25.10;3.80;;;;;;5010415;28;20391;-72
2021/06/02 09:40:34;;;;;;;6.57;3.67;;;25.00;3.70;;;;;;5010496;28;20389;-72
2021/06/02 09:43:01;;;;;;;5.47;3.60;;;25.00;2.60;;;;;;5013505;28;20739;-73
2021/06/02 09:45:27;;;;;;;5.30;3.50;;;25.20;1.00;;;;;;5021235;28;20497;-73
2021/06/02 09:47:58;;;;;;;5.90;4.03;;;25.20;1.00;;;;;;5018469;28;20399;-73
2021/06/02 09:50:39;;;;;;;8.32;3.05;;;25.40;1.00;;;;;;5009536;28;20400;-72
2021/06/02 09:53:07;;;;;;;5.82;3.80;;;25.60;1.00;;;;;;5023181;28;20400;-73
2021/06/02 09:55:33;;;;;;;6.95;3.38;;;25.70;1.00;;;;;;5033612;28;20407;-74
2021/06/02 09:58:05;;;;;;;6.18;4.00;;;25.70;1.00;;;;;;5029410;28;20400;-74
2021/06/02 10:00:38;;;;;;;5.30;3.50;;;25.70;1.00;;;;;;5016207;28;20405;-73
2021/06/02 10:03:12;;;;;;;4.33;3.30;;;25.50;1.00;;;;;;5025803;28;20409;-73
2021/06/02 10:05:48;;;;;;;5.97;3.60;;;25.60;1.00;;;;;;5020838;28;20734;-73
2021/06/02 10:08:25;;;;;;;5.95;3.50;;;25.70;1.00;;;;;;5021560;28;20718;-73
2021/06/02 10:10:52;;;;;;;5.47;3.35;;;25.80;1.00;;;;;;5019867;28;20397;-73
2021/06/02 10:13:20;;;;;;;8.93;3.70;;;25.80;1.00;;;;;;5018140;28;20385;-70
2021/06/02 10:15:46;;;;;;;5.20;3.65;;;25.80;1.00;;;;;;5019092;28;20400;-71
2021/06/02 10:18:31;;;;;;;7.30;3.67;;;25.80;1.00;;;;;;5024033;28;20409;-71
2021/06/02 10:20:58;;;;;;;10.38;3.58;;;25.90;1.00;;;;;;5013755;28;20408;-71
2021/06/02 10:23:25;;;;;;;3.60;3.20;;;26.20;1.00;;;;;;5026047;28;20405;-70
2021/06/02 10:25:52;;;;;;;4.22;3.25;;;26.20;1.00;;;;;;5023416;28;20399;-70
2021/06/02 10:28:18;;;;;;;5.05;3.60;;;26.10;1.00;;;;;;5016774;28;20397;-70
2021/06/02 10:30:46;;;;;;;5.00;3.33;;;26.10;1.00;;;;;;5016343;28;20885;-70
2021/06/02 10:33:12;;;;;;;5.30;3.63;;;26.10;1.00;;;;;;5032855;28;20922;-71
2021/06/02 10:35:38;;;;;;;3.80;3.30;;;26.20;1.00;;;;;;5025821;28;20507;-71
2021/06/02 10:38:05;;;;;;;4.30;2.93;;;26.20;1.00;;;;;;5025255;28;20481;-71
2021/06/02 10:40:32;;;;;;;9.23;3.08;;;26.30;1.00;;;;;;5033191;28;20387;-71
2021/06/02 10:43:15;;;;;;;5.30;3.50;;;26.40;1.00;;;;;;5022274;28;20432;-71
2021/06/02 10:45:58;;;;;;;5.28;3.53;;;26.30;1.00;;;;;;5013859;28;20574;-71
2021/06/02 10:49:00;;;;;;;5.13;3.40;;;26.30;1.00;;;;;;5030869;28;20402;-71
2021/06/02 10:51:28;;;;;;;4.60;3.70;;;26.50;1.00;;;;;;4986381;28;20427;-71
2021/06/02 10:54:18;;;;;;;4.32;3.08;;;26.50;1.00;;;;;;5028365;28;20391;-72
2021/06/02 10:57:02;;;;;;;3.47;3.17;;;26.30;1.00;;;;;;5011852;28;20405;-72
2021/06/02 10:59:42;;;;;;;5.60;3.20;;;26.50;1.00;;;;;;5013965;28;20428;-73
2021/06/02 11:02:10;;;;;;;4.32;3.03;;;26.40;1.00;;;;;;5015050;28;20411;-72
2021/06/02 11:04:38;;;;;;;6.57;3.53;;;26.50;1.00;;;;;;5020923;28;20883;-73
2021/06/02 11:07:20;;;;;;;4.32;3.78;;;26.60;1.00;;;;;;5019242;28;20411;-71
2021/06/02 11:10:12;;;;;;;5.88;3.28;;;26.70;1.00;;;;;;5027040;28;20421;-71
2021/06/02 11:12:47;;;;;;;5.80;3.70;;;26.70;1.00;;;;;;5014748;28;20396;-72
2021/06/02 11:15:31;;;;;;;7.15;3.55;;;26.90;1.00;;;;;;5019213;28;20463;-72
2021/06/02 11:18:08;;;;;;;4.87;3.63;;;26.80;1.00;;;;;;5014444;28;20401;-72
2021/06/02 11:20:51;;;;;;;8.45;3.67;;;27.00;1.00;;;;;;5031059;28;20449;-72
2021/06/02 11:23:21;;;;;;;4.80;3.50;;;27.00;1.00;;;;;;5021233;28;20830;-71
2021/06/02 11:25:48;;;;;;;8.38;3.88;;;26.90;1.00;;;;;;5018509;28;20415;-71
2021/06/02 11:28:40;;;;;;;5.60;3.50;;;26.80;1.00;;;;;;5013356;28;20471;-75
2021/06/02 11:31:25;;;;;;;3.45;3.15;;;26.90;1.00;;;;;;5028974;28;20953;-74
2021/06/02 11:33:52;;;;;;;4.40;3.20;;;27.20;1.00;;;;;;5031285;28;20395;-73
2021/06/02 11:36:19;;;;;;;3.78;3.20;;;27.20;1.00;;;;;;5027012;28;20764;-72
2021/06/02 11:38:45;;;;;;;5.93;3.40;;;27.20;1.00;;;;;;5019888;28;20389;-73
2021/06/02 11:41:12;;;;;;;5.38;3.10;;;27.30;1.00;;;;;;5016584;28;20412;-73
2021/06/02 11:43:38;;;;;;;6.20;3.80;;;27.40;1.00;;;;;;5021361;28;20417;-73
2021/06/02 11:46:04;;;;;;;4.57;3.60;;;27.30;1.00;;;;;;5017054;28;20507;-73
2021/06/02 11:48:31;;;;;;;8.68;3.97;;;27.30;1.00;;;;;;5030994;28;20437;-73
2021/06/02 11:50:59;;;;;;;3.40;3.10;;;27.50;1.00;;;;;;5017001;28;20409;-73
2021/06/02 11:53:43;;;;;;;6.35;3.40;;;27.60;1.00;;;;;;5011439;28;20391;-72
2021/06/02 11:56:08;;;;;;;5.32;3.22;;;27.60;1.00;;;;;;5031530;28;20472;-73
2021/06/02 11:58:34;;;;;;;6.32;2.97;;;27.60;1.00;;;;;;5026684;28;20395;-73
2021/06/02 12:01:00;;;;;;;5.55;3.33;;;27.70;1.00;;;;;;5030688;28;20405;-72
2021/06/02 12:03:28;;;;;;;6.20;2.70;;;27.80;1.00;;;;;;5029588;28;20482;-74
2021/06/02 12:05:53;;;;;;;9.20;3.60;;;27.90;1.00;;;;;;5027765;28;20483;-74
2021/06/02 12:08:20;;;;;;;3.17;2.90;;;28.00;1.00;;;;;;5029739;28;20830;-73
2021/06/02 12:10:49;;;;;;;4.72;3.10;;;28.00;1.00;;;;;;5030158;28;20800;-74
2021/06/02 12:13:26;;;;;;;4.35;3.25;;;28.00;1.00;;;;;;5017557;28;20391;-73
2021/06/02 12:16:11;;;;;;;7.00;5.33;;;28.00;1.00;;;;;;5011050;28;20408;-73
2021/06/02 12:18:43;;;;;;;4.30;3.10;;;28.10;1.00;;;;;;5011530;28;20925;-73
2021/06/02 12:21:27;;;;;;;3.60;3.25;;;28.00;1.00;;;;;;5011087;28;20888;-73
2021/06/02 12:24:03;;;;;;;3.50;3.20;;;28.00;1.00;;;;;;5016095;28;20407;-73
2021/06/02 12:26:33;;;;;;;3.30;3.00;;;28.00;1.00;;;;;;5023590;28;20869;-72
2021/06/02 12:29:02;;;;;;;3.03;2.83;;;27.90;1.00;;;;;;5019242;28;20408;-72
2021/06/02 12:31:37;;;;;;;3.45;3.15;;;28.10;1.00;;;;;;5021392;28;20395;-71
2021/06/02 12:34:13;;;;;;;6.13;2.70;;;28.10;1.00;;;;;;5021032;28;20391;-73
2021/06/02 12:36:47;;;;;;;6.03;3.72;;;28.10;1.00;;;;;;5023489;28;20402;-73
2021/06/02 12:39:18;;;;;;;3.40;2.85;;;28.30;1.00;;;;;;5029774;28;20389;-72
2021/06/02 12:41:48;;;;;;;7.03;2.90;;;28.30;1.00;;;;;;5023033;28;20403;-72
2021/06/02 12:44:14;;;;;;;5.63;2.72;;;28.30;1.00;;;;;;5011145;28;20499;-76
2021/06/02 12:46:39;;;;;;;4.60;2.85;;;28.40;1.00;;;;;;5021259;28;20510;-73
2021/06/02 12:49:09;;;;;;;4.20;3.05;;;28.40;1.00;;;;;;5017498;28;20391;-74
2021/06/02 12:51:37;;;;;;;4.47;2.80;;;28.50;1.00;;;;;;5029718;28;20472;-73
2021/06/02 12:54:03;;;;;;;4.60;3.00;;;28.60;1.00;;;;;;5013289;28;20489;-73
2021/06/02 12:56:29;;;;;;;3.05;2.75;;;28.60;1.00;;;;;;5010364;28;20396;-77
2021/06/02 12:58:57;;;;;;;4.63;3.10;;;28.50;1.00;;;;;;5020781;28;20829;-73
2021/06/02 13:01:31;;;;;;;3.90;2.90;;;28.50;1.00;;;;;;5023130;28;20401;-74
2021/06/02 13:04:00;;;;;;;2.70;2.50;;;28.30;1.00;;;;;;5012036;28;20410;-74
2021/06/02 13:06:27;;;;;;;4.93;2.80;;;28.40;1.00;;;;;;5030321;28;20399;-73
2021/06/02 13:08:53;;;;;;;3.00;2.60;;;28.60;1.00;;;;;;5029612;28;20383;-74
2021/06/02 13:11:28;;;;;;;9.68;3.28;;;28.50;1.00;;;;;;5030125;28;20379;-73
2021/06/02 13:13:55;;;;;;;4.60;2.50;;;28.50;1.00;;;;;;5013541;28;20877;-73
2021/06/02 13:16:21;;;;;;;4.80;2.80;;;29.00;1.00;;;;;;5010806;28;20425;-73
2021/06/02 13:19:05;;;;;;;3.27;2.53;;;29.80;1.00;;;;;;5010157;28;20412;-74
2021/06/02 13:21:32;;;;;;;9.05;3.33;;;30.60;1.00;;;;;;5010442;28;20588;-72
2021/06/02 13:24:08;;;;;;;3.75;2.80;;;30.90;1.00;;;;;;5024734;28;20423;-72
2021/06/02 13:26:34;;;;;;;9.57;4.25;;;31.20;1.00;;;;;;5019668;28;20459;-71
2021/06/02 13:28:59;;;;;;;6.37;2.80;;;31.40;1.00;;;;;;5019592;28;20909;-71